sensor_id;sensor_type;location;lat;lon;timestamp;temperature;humidity
13186;DHT22;6658;53.080;7.428;2022-08-25T00:01:21;21.70;99.90
13186;DHT22;6658;53.080;7.428;2022-08-25T00:03:47;21.70;99.90
13186;DHT22;6658;53.080;7.428;2022-08-25T00:06:14;21.70;99.90
13186;DHT22;6658;53.080;7.428;2022-08-25T00:08:40;21.60;99.90
13186;DHT22;6658;53.080;7.428;2022-08-25T00:11:09;21.60;99.90
13186;DHT22;6658;53.080;7.428;2022-08-25T00:13:38;21.60;99.90
13186;DHT22;6658;53.080;7.428;2022-08-25T00:16:09;21.50;99.90
13186;DHT22;6658;53.080;7.428;2022-08-25T00:18:37;21.50;99.90
13186;DHT22;6658;53.080;7.428;2022-08-25T00:21:04;21.40;99.90
13186;DHT22;6658;53.080;7.428;2022-08-25T00:23:30;21.40;99.90
13186;DHT22;6658;53.080;7.428;2022-08-25T00:25:56;21.30;99.90
13186;DHT22;6658;53.080;7.428;2022-08-25T00:28:22;21.30;99.90
13186;DHT22;6658;53.080;7.428;2022-08-25T00:30:48;21.20;99.90
13186;DHT22;6658;53.080;7.428;2022-08-25T00:33:15;21.10;99.90
13186;DHT22;6658;53.080;7.428;2022-08-25T00:35:42;21.10;99.90
13186;DHT22;6658;53.080;7.428;2022-08-25T00:38:09;21.10;99.90
13186;DHT22;6658;53.080;7.428;2022-08-25T00:40:35;21.00;99.90
13186;DHT22;6658;53.080;7.428;2022-08-25T00:43:02;21.00;99.90
13186;DHT22;6658;53.080;7.428;2022-08-25T00:45:30;21.00;99.90
13186;DHT22;6658;53.080;7.428;2022-08-25T00:47:56;21.00;99.90
13186;DHT22;6658;53.080;7.428;2022-08-25T00:50:22;20.90;99.90
13186;DHT22;6658;53.080;7.428;2022-08-25T00:52:52;20.90;99.90
13186;DHT22;6658;53.080;7.428;2022-08-25T00:55:32;20.90;99.90
13186;DHT22;6658;53.080;7.428;2022-08-25T00:58:07;20.80;99.90
13186;DHT22;6658;53.080;7.428;2022-08-25T01:00:42;20.80;99.90
13186;DHT22;6658;53.080;7.428;2022-08-25T01:03:08;20.70;99.90
13186;DHT22;6658;53.080;7.428;2022-08-25T01:05:34;20.70;99.90
13186;DHT22;6658;53.080;7.428;2022-08-25T01:08:01;20.70;99.90
13186;DHT22;6658;53.080;7.428;2022-08-25T01:10:28;20.70;99.90
13186;DHT22;6658;53.080;7.428;2022-08-25T01:12:59;20.70;99.90
13186;DHT22;6658;53.080;7.428;2022-08-25T01:15:26;20.70;99.90
13186;DHT22;6658;53.080;7.428;2022-08-25T01:17:54;20.60;99.90
13186;DHT22;6658;53.080;7.428;2022-08-25T01:20:24;20.60;99.90
13186;DHT22;6658;53.080;7.428;2022-08-25T01:22:50;20.60;99.90
13186;DHT22;6658;53.080;7.428;2022-08-25T01:26:00;20.50;99.90
13186;DHT22;6658;53.080;7.428;2022-08-25T01:28:26;20.50;99.90
13186;DHT22;6658;53.080;7.428;2022-08-25T01:30:52;20.40;99.90
13186;DHT22;6658;53.080;7.428;2022-08-25T01:33:18;20.30;99.90
13186;DHT22;6658;53.080;7.428;2022-08-25T01:35:44;20.30;99.90
13186;DHT22;6658;53.080;7.428;2022-08-25T01:38:11;20.30;99.90
13186;DHT22;6658;53.080;7.428;2022-08-25T01:40:37;20.30;99.90
13186;DHT22;6658;53.080;7.428;2022-08-25T01:45:37;20.20;99.90
13186;DHT22;6658;53.080;7.428;2022-08-25T01:48:04;20.20;99.90
13186;DHT22;6658;53.080;7.428;2022-08-25T01:50:31;20.20;99.90
13186;DHT22;6658;53.080;7.428;2022-08-25T01:53:17;20.20;99.90
13186;DHT22;6658;53.080;7.428;2022-08-25T01:55:44;20.20;99.90
13186;DHT22;6658;53.080;7.428;2022-08-25T01:58:29;20.10;99.90
13186;DHT22;6658;53.080;7.428;2022-08-25T02:00:58;20.10;99.90
13186;DHT22;6658;53.080;7.428;2022-08-25T02:03:25;20.00;99.90
13186;DHT22;6658;53.080;7.428;2022-08-25T02:05:51;20.00;99.90
13186;DHT22;6658;53.080;7.428;2022-08-25T02:08:18;20.00;99.90
13186;DHT22;6658;53.080;7.428;2022-08-25T02:10:44;20.00;99.90
13186;DHT22;6658;53.080;7.428;2022-08-25T02:13:11;19.90;99.90
13186;DHT22;6658;53.080;7.428;2022-08-25T02:15:57;19.90;99.90
13186;DHT22;6658;53.080;7.428;2022-08-25T02:18:24;19.90;99.90
13186;DHT22;6658;53.080;7.428;2022-08-25T02:20:49;19.80;99.90
13186;DHT22;6658;53.080;7.428;2022-08-25T02:23:15;19.80;99.90
13186;DHT22;6658;53.080;7.428;2022-08-25T02:25:42;19.80;99.90
13186;DHT22;6658;53.080;7.428;2022-08-25T02:28:09;19.80;99.90
13186;DHT22;6658;53.080;7.428;2022-08-25T02:30:36;19.70;99.90
13186;DHT22;6658;53.080;7.428;2022-08-25T02:33:03;19.70;99.90
13186;DHT22;6658;53.080;7.428;2022-08-25T02:35:29;19.70;99.90
13186;DHT22;6658;53.080;7.428;2022-08-25T02:37:55;19.70;99.90
13186;DHT22;6658;53.080;7.428;2022-08-25T02:40:21;19.70;99.90
13186;DHT22;6658;53.080;7.428;2022-08-25T02:42:48;19.70;99.90
13186;DHT22;6658;53.080;7.428;2022-08-25T02:45:14;19.70;99.90
13186;DHT22;6658;53.080;7.428;2022-08-25T02:47:40;19.70;99.90
13186;DHT22;6658;53.080;7.428;2022-08-25T02:50:07;19.70;99.90
13186;DHT22;6658;53.080;7.428;2022-08-25T02:52:33;19.70;99.90
13186;DHT22;6658;53.080;7.428;2022-08-25T02:55:00;19.60;99.90
13186;DHT22;6658;53.080;7.428;2022-08-25T02:57:29;19.60;99.90
13186;DHT22;6658;53.080;7.428;2022-08-25T02:59:54;19.50;99.90
13186;DHT22;6658;53.080;7.428;2022-08-25T03:02:20;19.50;99.90
13186;DHT22;6658;53.080;7.428;2022-08-25T03:04:46;19.50;99.90
13186;DHT22;6658;53.080;7.428;2022-08-25T03:07:12;19.40;99.90
13186;DHT22;6658;53.080;7.428;2022-08-25T03:09:37;19.50;99.90
13186;DHT22;6658;53.080;7.428;2022-08-25T03:12:04;19.40;99.90
13186;DHT22;6658;53.080;7.428;2022-08-25T03:14:29;19.40;99.90
13186;DHT22;6658;53.080;7.428;2022-08-25T03:16:56;19.40;99.90
13186;DHT22;6658;53.080;7.428;2022-08-25T03:19:21;19.40;99.90
13186;DHT22;6658;53.080;7.428;2022-08-25T03:21:49;19.40;99.90
13186;DHT22;6658;53.080;7.428;2022-08-25T03:24:16;19.30;99.90
13186;DHT22;6658;53.080;7.428;2022-08-25T03:26:42;19.20;99.90
13186;DHT22;6658;53.080;7.428;2022-08-25T03:29:22;19.20;99.90
13186;DHT22;6658;53.080;7.428;2022-08-25T03:31:49;19.20;99.90
13186;DHT22;6658;53.080;7.428;2022-08-25T03:34:16;19.10;99.90
13186;DHT22;6658;53.080;7.428;2022-08-25T03:36:44;19.10;99.90
13186;DHT22;6658;53.080;7.428;2022-08-25T03:39:11;19.10;99.90
13186;DHT22;6658;53.080;7.428;2022-08-25T03:41:37;19.00;99.90
13186;DHT22;6658;53.080;7.428;2022-08-25T03:44:04;19.00;99.90
13186;DHT22;6658;53.080;7.428;2022-08-25T03:46:35;19.00;99.90
13186;DHT22;6658;53.080;7.428;2022-08-25T03:49:03;19.00;99.90
13186;DHT22;6658;53.080;7.428;2022-08-25T03:51:40;19.00;99.90
13186;DHT22;6658;53.080;7.428;2022-08-25T03:54:07;19.00;99.90
13186;DHT22;6658;53.080;7.428;2022-08-25T03:56:33;19.00;99.90
13186;DHT22;6658;53.080;7.428;2022-08-25T03:58:59;19.00;99.90
13186;DHT22;6658;53.080;7.428;2022-08-25T04:01:25;19.00;99.90
13186;DHT22;6658;53.080;7.428;2022-08-25T04:03:51;19.00;99.90
13186;DHT22;6658;53.080;7.428;2022-08-25T04:06:18;19.00;99.90
13186;DHT22;6658;53.080;7.428;2022-08-25T04:08:44;18.90;99.90
13186;DHT22;6658;53.080;7.428;2022-08-25T04:11:15;18.90;99.90
13186;DHT22;6658;53.080;7.428;2022-08-25T04:13:42;18.90;99.90
13186;DHT22;6658;53.080;7.428;2022-08-25T04:16:17;18.90;99.90
13186;DHT22;6658;53.080;7.428;2022-08-25T04:18:44;18.90;99.90
13186;DHT22;6658;53.080;7.428;2022-08-25T04:21:11;18.90;99.90
13186;DHT22;6658;53.080;7.428;2022-08-25T04:23:39;18.90;99.90
13186;DHT22;6658;53.080;7.428;2022-08-25T04:26:14;18.90;99.90
13186;DHT22;6658;53.080;7.428;2022-08-25T04:28:40;18.90;99.90
13186;DHT22;6658;53.080;7.428;2022-08-25T04:31:10;18.90;99.90
13186;DHT22;6658;53.080;7.428;2022-08-25T04:33:36;18.90;99.90
13186;DHT22;6658;53.080;7.428;2022-08-25T04:36:04;18.90;99.90
13186;DHT22;6658;53.080;7.428;2022-08-25T04:38:31;18.90;99.90
13186;DHT22;6658;53.080;7.428;2022-08-25T04:40:58;18.90;99.90
13186;DHT22;6658;53.080;7.428;2022-08-25T04:43:25;18.90;99.90
13186;DHT22;6658;53.080;7.428;2022-08-25T04:45:51;18.90;99.90
13186;DHT22;6658;53.080;7.428;2022-08-25T04:48:16;18.90;99.90
13186;DHT22;6658;53.080;7.428;2022-08-25T04:50:42;18.90;99.90
13186;DHT22;6658;53.080;7.428;2022-08-25T04:53:09;18.90;99.90
13186;DHT22;6658;53.080;7.428;2022-08-25T04:55:45;18.90;99.90
13186;DHT22;6658;53.080;7.428;2022-08-25T04:58:13;19.00;99.90
13186;DHT22;6658;53.080;7.428;2022-08-25T05:00:40;19.10;99.90
13186;DHT22;6658;53.080;7.428;2022-08-25T05:03:07;19.20;99.90
13186;DHT22;6658;53.080;7.428;2022-08-25T05:05:35;19.30;99.90
13186;DHT22;6658;53.080;7.428;2022-08-25T05:08:02;19.30;99.90
13186;DHT22;6658;53.080;7.428;2022-08-25T05:10:27;19.30;99.90
13186;DHT22;6658;53.080;7.428;2022-08-25T05:12:53;19.30;99.90
13186;DHT22;6658;53.080;7.428;2022-08-25T05:15:19;19.20;99.90
13186;DHT22;6658;53.080;7.428;2022-08-25T05:18:03;19.20;99.90
13186;DHT22;6658;53.080;7.428;2022-08-25T05:20:30;19.10;99.90
13186;DHT22;6658;53.080;7.428;2022-08-25T05:22:56;19.10;99.90
13186;DHT22;6658;53.080;7.428;2022-08-25T05:25:23;19.20;99.90
13186;DHT22;6658;53.080;7.428;2022-08-25T05:27:49;19.20;99.90
13186;DHT22;6658;53.080;7.428;2022-08-25T05:30:14;19.20;99.90
13186;DHT22;6658;53.080;7.428;2022-08-25T05:32:40;19.20;99.90
13186;DHT22;6658;53.080;7.428;2022-08-25T05:35:07;19.20;99.90
13186;DHT22;6658;53.080;7.428;2022-08-25T05:37:33;19.30;99.90
13186;DHT22;6658;53.080;7.428;2022-08-25T05:39:58;19.30;99.90
13186;DHT22;6658;53.080;7.428;2022-08-25T05:42:25;19.40;99.90
13186;DHT22;6658;53.080;7.428;2022-08-25T05:44:52;19.40;99.90
13186;DHT22;6658;53.080;7.428;2022-08-25T05:47:18;19.50;99.90
13186;DHT22;6658;53.080;7.428;2022-08-25T05:49:44;19.50;99.90
13186;DHT22;6658;53.080;7.428;2022-08-25T05:52:10;19.60;99.90
13186;DHT22;6658;53.080;7.428;2022-08-25T05:54:35;19.60;99.90
13186;DHT22;6658;53.080;7.428;2022-08-25T05:57:01;19.60;99.90
13186;DHT22;6658;53.080;7.428;2022-08-25T05:59:26;19.70;99.90
13186;DHT22;6658;53.080;7.428;2022-08-25T06:01:54;19.70;99.90
13186;DHT22;6658;53.080;7.428;2022-08-25T06:04:38;19.70;99.90
13186;DHT22;6658;53.080;7.428;2022-08-25T06:07:04;19.70;99.90
13186;DHT22;6658;53.080;7.428;2022-08-25T06:09:29;19.80;99.90
13186;DHT22;6658;53.080;7.428;2022-08-25T06:11:55;19.80;99.90
13186;DHT22;6658;53.080;7.428;2022-08-25T06:14:21;19.80;99.90
13186;DHT22;6658;53.080;7.428;2022-08-25T06:16:47;19.80;99.90
13186;DHT22;6658;53.080;7.428;2022-08-25T06:19:16;19.90;99.90
13186;DHT22;6658;53.080;7.428;2022-08-25T06:21:42;19.90;99.90
13186;DHT22;6658;53.080;7.428;2022-08-25T06:24:09;20.00;99.90
13186;DHT22;6658;53.080;7.428;2022-08-25T06:26:36;20.00;99.90
13186;DHT22;6658;53.080;7.428;2022-08-25T06:29:02;20.00;99.90
13186;DHT22;6658;53.080;7.428;2022-08-25T06:31:28;20.00;99.90
13186;DHT22;6658;53.080;7.428;2022-08-25T06:33:54;20.10;99.90
13186;DHT22;6658;53.080;7.428;2022-08-25T06:36:20;20.20;99.90
13186;DHT22;6658;53.080;7.428;2022-08-25T06:38:46;20.30;99.90
13186;DHT22;6658;53.080;7.428;2022-08-25T06:41:12;20.30;99.90
13186;DHT22;6658;53.080;7.428;2022-08-25T06:43:40;20.40;99.90
13186;DHT22;6658;53.080;7.428;2022-08-25T06:46:15;20.50;99.90
13186;DHT22;6658;53.080;7.428;2022-08-25T06:48:41;20.60;99.90
13186;DHT22;6658;53.080;7.428;2022-08-25T06:51:09;20.70;99.90
13186;DHT22;6658;53.080;7.428;2022-08-25T06:53:36;20.80;99.90
13186;DHT22;6658;53.080;7.428;2022-08-25T06:56:03;20.90;99.90
13186;DHT22;6658;53.080;7.428;2022-08-25T06:58:29;21.00;99.90
13186;DHT22;6658;53.080;7.428;2022-08-25T07:00:55;21.10;99.90
13186;DHT22;6658;53.080;7.428;2022-08-25T07:03:21;21.20;99.90
13186;DHT22;6658;53.080;7.428;2022-08-25T07:05:54;21.30;99.90
13186;DHT22;6658;53.080;7.428;2022-08-25T07:08:21;21.40;99.90
13186;DHT22;6658;53.080;7.428;2022-08-25T07:10:48;21.50;99.90
13186;DHT22;6658;53.080;7.428;2022-08-25T07:13:14;21.60;99.90
13186;DHT22;6658;53.080;7.428;2022-08-25T07:15:41;21.70;99.90
13186;DHT22;6658;53.080;7.428;2022-08-25T07:18:07;21.90;99.90
13186;DHT22;6658;53.080;7.428;2022-08-25T07:20:34;22.10;99.90
13186;DHT22;6658;53.080;7.428;2022-08-25T07:23:00;22.20;99.90
13186;DHT22;6658;53.080;7.428;2022-08-25T07:25:25;22.40;99.90
13186;DHT22;6658;53.080;7.428;2022-08-25T07:27:51;22.80;99.90
13186;DHT22;6658;53.080;7.428;2022-08-25T07:30:17;23.40;99.90
13186;DHT22;6658;53.080;7.428;2022-08-25T07:32:43;23.90;99.90
13186;DHT22;6658;53.080;7.428;2022-08-25T07:35:09;24.30;99.90
13186;DHT22;6658;53.080;7.428;2022-08-25T07:37:44;24.40;99.90
13186;DHT22;6658;53.080;7.428;2022-08-25T07:40:17;24.60;99.90
13186;DHT22;6658;53.080;7.428;2022-08-25T07:42:46;24.90;99.90
13186;DHT22;6658;53.080;7.428;2022-08-25T07:45:13;25.20;99.90
13186;DHT22;6658;53.080;7.428;2022-08-25T07:47:39;25.40;99.90
13186;DHT22;6658;53.080;7.428;2022-08-25T07:50:08;25.40;99.90
13186;DHT22;6658;53.080;7.428;2022-08-25T07:52:34;25.50;99.90
13186;DHT22;6658;53.080;7.428;2022-08-25T07:55:01;25.80;99.90
13186;DHT22;6658;53.080;7.428;2022-08-25T07:57:27;26.30;99.90
13186;DHT22;6658;53.080;7.428;2022-08-25T07:59:54;26.70;99.90
13186;DHT22;6658;53.080;7.428;2022-08-25T08:02:20;27.00;99.90
13186;DHT22;6658;53.080;7.428;2022-08-25T08:04:47;27.10;99.90
13186;DHT22;6658;53.080;7.428;2022-08-25T08:07:19;26.70;99.90
13186;DHT22;6658;53.080;7.428;2022-08-25T08:09:46;26.50;99.90
13186;DHT22;6658;53.080;7.428;2022-08-25T08:12:12;26.90;99.90
13186;DHT22;6658;53.080;7.428;2022-08-25T08:14:38;27.20;99.90
13186;DHT22;6658;53.080;7.428;2022-08-25T08:17:06;27.10;99.90
13186;DHT22;6658;53.080;7.428;2022-08-25T08:19:32;27.00;99.90
13186;DHT22;6658;53.080;7.428;2022-08-25T08:21:59;27.60;99.90
13186;DHT22;6658;53.080;7.428;2022-08-25T08:24:25;27.50;99.90
13186;DHT22;6658;53.080;7.428;2022-08-25T08:26:50;27.70;99.90
13186;DHT22;6658;53.080;7.428;2022-08-25T08:29:16;27.90;99.90
13186;DHT22;6658;53.080;7.428;2022-08-25T08:31:44;28.00;99.90
13186;DHT22;6658;53.080;7.428;2022-08-25T08:34:10;28.30;99.10
13186;DHT22;6658;53.080;7.428;2022-08-25T08:36:36;28.20;99.70
13186;DHT22;6658;53.080;7.428;2022-08-25T08:39:02;28.30;98.60
13186;DHT22;6658;53.080;7.428;2022-08-25T08:41:36;28.50;98.80
13186;DHT22;6658;53.080;7.428;2022-08-25T08:44:45;28.80;98.40
13186;DHT22;6658;53.080;7.428;2022-08-25T08:53:18;29.80;96.90
13186;DHT22;6658;53.080;7.428;2022-08-25T08:56:01;29.90;96.40
13186;DHT22;6658;53.080;7.428;2022-08-25T08:58:51;30.00;95.30
13186;DHT22;6658;53.080;7.428;2022-08-25T09:01:56;30.20;95.20
13186;DHT22;6658;53.080;7.428;2022-08-25T09:04:36;30.40;94.70
13186;DHT22;6658;53.080;7.428;2022-08-25T09:07:10;31.20;95.30
13186;DHT22;6658;53.080;7.428;2022-08-25T09:09:39;32.10;93.30
13186;DHT22;6658;53.080;7.428;2022-08-25T09:12:28;32.60;90.50
13186;DHT22;6658;53.080;7.428;2022-08-25T09:18:21;32.50;90.20
13186;DHT22;6658;53.080;7.428;2022-08-25T09:21:09;32.10;90.50
13186;DHT22;6658;53.080;7.428;2022-08-25T09:26:48;32.40;90.30
13186;DHT22;6658;53.080;7.428;2022-08-25T09:29:23;33.10;89.30
13186;DHT22;6658;53.080;7.428;2022-08-25T09:31:56;34.50;85.90
13186;DHT22;6658;53.080;7.428;2022-08-25T09:34:29;35.30;80.30
13186;DHT22;6658;53.080;7.428;2022-08-25T09:36:56;35.40;79.00
13186;DHT22;6658;53.080;7.428;2022-08-25T09:39:23;35.80;77.30
13186;DHT22;6658;53.080;7.428;2022-08-25T09:41:52;35.20;78.60
13186;DHT22;6658;53.080;7.428;2022-08-25T09:44:40;35.00;80.10
13186;DHT22;6658;53.080;7.428;2022-08-25T09:47:20;35.10;77.00
13186;DHT22;6658;53.080;7.428;2022-08-25T09:49:55;34.20;78.30
13186;DHT22;6658;53.080;7.428;2022-08-25T09:55:21;34.70;76.80
13186;DHT22;6658;53.080;7.428;2022-08-25T09:57:50;33.30;81.30
13186;DHT22;6658;53.080;7.428;2022-08-25T10:11:30;32.70;82.70
13186;DHT22;6658;53.080;7.428;2022-08-25T10:14:19;33.00;86.70
13186;DHT22;6658;53.080;7.428;2022-08-25T10:16:46;32.90;82.80
13186;DHT22;6658;53.080;7.428;2022-08-25T10:19:24;33.20;82.30
13186;DHT22;6658;53.080;7.428;2022-08-25T10:22:11;34.40;82.20
13186;DHT22;6658;53.080;7.428;2022-08-25T10:24:38;34.20;77.30
13186;DHT22;6658;53.080;7.428;2022-08-25T10:29:56;34.50;77.20
13186;DHT22;6658;53.080;7.428;2022-08-25T10:35:17;34.90;73.50
13186;DHT22;6658;53.080;7.428;2022-08-25T10:40:38;35.90;71.40
13186;DHT22;6658;53.080;7.428;2022-08-25T10:46:04;37.10;67.10
13186;DHT22;6658;53.080;7.428;2022-08-25T10:48:50;37.60;65.50
13186;DHT22;6658;53.080;7.428;2022-08-25T10:56:45;38.20;60.70
13186;DHT22;6658;53.080;7.428;2022-08-25T11:05:02;38.00;61.50
13186;DHT22;6658;53.080;7.428;2022-08-25T11:07:38;37.90;61.50
13186;DHT22;6658;53.080;7.428;2022-08-25T11:10:10;37.70;62.60
13186;DHT22;6658;53.080;7.428;2022-08-25T11:12:44;36.30;63.60
13186;DHT22;6658;53.080;7.428;2022-08-25T11:15:35;36.40;63.60
13186;DHT22;6658;53.080;7.428;2022-08-25T11:18:11;34.40;65.30
13186;DHT22;6658;53.080;7.428;2022-08-25T11:23:43;33.20;70.00
13186;DHT22;6658;53.080;7.428;2022-08-25T11:26:12;33.20;68.70
13186;DHT22;6658;53.080;7.428;2022-08-25T11:29:02;32.20;70.30
13186;DHT22;6658;53.080;7.428;2022-08-25T11:31:29;31.50;72.90
13186;DHT22;6658;53.080;7.428;2022-08-25T11:33:56;30.90;72.80
13186;DHT22;6658;53.080;7.428;2022-08-25T11:36:37;30.60;75.30
13186;DHT22;6658;53.080;7.428;2022-08-25T11:41:42;29.90;77.10
13186;DHT22;6658;53.080;7.428;2022-08-25T11:44:38;29.90;76.40
13186;DHT22;6658;53.080;7.428;2022-08-25T12:00:42;29.50;78.50
13186;DHT22;6658;53.080;7.428;2022-08-25T12:06:23;29.60;78.50
13186;DHT22;6658;53.080;7.428;2022-08-25T12:11:54;29.90;79.50
13186;DHT22;6658;53.080;7.428;2022-08-25T12:24:46;29.80;81.80
13186;DHT22;6658;53.080;7.428;2022-08-25T12:27:37;30.00;81.00
13186;DHT22;6658;53.080;7.428;2022-08-25T12:35:58;30.00;79.80
13186;DHT22;6658;53.080;7.428;2022-08-25T12:38:40;30.10;78.70
13186;DHT22;6658;53.080;7.428;2022-08-25T12:41:09;30.10;78.10
13186;DHT22;6658;53.080;7.428;2022-08-25T12:43:41;30.10;78.30
13186;DHT22;6658;53.080;7.428;2022-08-25T12:49:03;29.80;80.00
13186;DHT22;6658;53.080;7.428;2022-08-25T12:54:22;30.10;78.20
13186;DHT22;6658;53.080;7.428;2022-08-25T12:56:54;30.20;79.20
13186;DHT22;6658;53.080;7.428;2022-08-25T12:59:38;30.30;77.10
13186;DHT22;6658;53.080;7.428;2022-08-25T13:05:04;30.50;76.30
13186;DHT22;6658;53.080;7.428;2022-08-25T13:15:43;30.30;74.60
13186;DHT22;6658;53.080;7.428;2022-08-25T13:18:38;30.30;75.70
13186;DHT22;6658;53.080;7.428;2022-08-25T13:21:12;30.40;77.70
13186;DHT22;6658;53.080;7.428;2022-08-25T13:23:41;30.30;76.10
13186;DHT22;6658;53.080;7.428;2022-08-25T13:26:15;30.30;76.80
13186;DHT22;6658;53.080;7.428;2022-08-25T13:28:43;30.30;75.00
13186;DHT22;6658;53.080;7.428;2022-08-25T13:31:17;30.30;75.80
13186;DHT22;6658;53.080;7.428;2022-08-25T13:33:56;30.30;77.60
13186;DHT22;6658;53.080;7.428;2022-08-25T13:36:24;30.40;77.40
13186;DHT22;6658;53.080;7.428;2022-08-25T13:39:21;30.40;77.70
13186;DHT22;6658;53.080;7.428;2022-08-25T13:41:50;30.40;75.40
13186;DHT22;6658;53.080;7.428;2022-08-25T13:44:17;30.30;75.80
13186;DHT22;6658;53.080;7.428;2022-08-25T13:46:44;30.30;76.50
13186;DHT22;6658;53.080;7.428;2022-08-25T13:49:10;30.40;76.80
13186;DHT22;6658;53.080;7.428;2022-08-25T13:51:37;30.40;75.70
13186;DHT22;6658;53.080;7.428;2022-08-25T13:54:19;30.40;77.40
13186;DHT22;6658;53.080;7.428;2022-08-25T13:56:47;30.50;76.10
13186;DHT22;6658;53.080;7.428;2022-08-25T13:59:26;30.40;73.60
13186;DHT22;6658;53.080;7.428;2022-08-25T14:01:55;30.40;73.20
13186;DHT22;6658;53.080;7.428;2022-08-25T14:07:12;30.40;75.60
13186;DHT22;6658;53.080;7.428;2022-08-25T14:09:50;30.50;76.70
13186;DHT22;6658;53.080;7.428;2022-08-25T14:15:06;30.40;75.60
13186;DHT22;6658;53.080;7.428;2022-08-25T14:17:33;30.40;76.30
13186;DHT22;6658;53.080;7.428;2022-08-25T14:19:59;30.50;76.00
13186;DHT22;6658;53.080;7.428;2022-08-25T14:22:25;30.30;76.10
13186;DHT22;6658;53.080;7.428;2022-08-25T14:24:53;30.40;76.70
13186;DHT22;6658;53.080;7.428;2022-08-25T14:27:19;30.50;76.90
13186;DHT22;6658;53.080;7.428;2022-08-25T14:29:45;30.60;77.90
13186;DHT22;6658;53.080;7.428;2022-08-25T14:32:11;30.70;77.90
13186;DHT22;6658;53.080;7.428;2022-08-25T14:34:38;30.80;77.60
13186;DHT22;6658;53.080;7.428;2022-08-25T14:37:18;30.70;78.10
13186;DHT22;6658;53.080;7.428;2022-08-25T14:39:44;30.50;75.70
13186;DHT22;6658;53.080;7.428;2022-08-25T14:42:10;30.50;75.40
13186;DHT22;6658;53.080;7.428;2022-08-25T14:44:37;30.40;75.10
13186;DHT22;6658;53.080;7.428;2022-08-25T14:47:04;30.50;77.00
13186;DHT22;6658;53.080;7.428;2022-08-25T14:49:34;30.50;78.20
13186;DHT22;6658;53.080;7.428;2022-08-25T14:52:06;30.50;77.10
13186;DHT22;6658;53.080;7.428;2022-08-25T14:54:34;30.60;78.00
13186;DHT22;6658;53.080;7.428;2022-08-25T14:57:00;30.50;78.30
13186;DHT22;6658;53.080;7.428;2022-08-25T14:59:26;30.40;77.70
13186;DHT22;6658;53.080;7.428;2022-08-25T15:01:52;30.30;78.80
13186;DHT22;6658;53.080;7.428;2022-08-25T15:04:20;30.30;80.60
13186;DHT22;6658;53.080;7.428;2022-08-25T15:06:51;30.50;81.20
13186;DHT22;6658;53.080;7.428;2022-08-25T15:09:19;30.50;78.70
13186;DHT22;6658;53.080;7.428;2022-08-25T15:11:48;30.50;79.80
13186;DHT22;6658;53.080;7.428;2022-08-25T15:14:16;30.50;81.10
13186;DHT22;6658;53.080;7.428;2022-08-25T15:16:48;30.50;80.20
13186;DHT22;6658;53.080;7.428;2022-08-25T15:19:16;30.40;80.90
13186;DHT22;6658;53.080;7.428;2022-08-25T15:21:43;30.30;80.40
13186;DHT22;6658;53.080;7.428;2022-08-25T15:24:10;30.30;82.40
13186;DHT22;6658;53.080;7.428;2022-08-25T15:26:46;30.30;82.00
13186;DHT22;6658;53.080;7.428;2022-08-25T15:29:13;30.20;82.00
13186;DHT22;6658;53.080;7.428;2022-08-25T15:31:38;30.20;82.50
13186;DHT22;6658;53.080;7.428;2022-08-25T15:34:06;30.10;82.70
13186;DHT22;6658;53.080;7.428;2022-08-25T15:36:32;30.00;81.80
13186;DHT22;6658;53.080;7.428;2022-08-25T15:38:59;30.00;82.00
13186;DHT22;6658;53.080;7.428;2022-08-25T15:41:24;29.90;82.20
13186;DHT22;6658;53.080;7.428;2022-08-25T15:43:50;29.90;83.40
13186;DHT22;6658;53.080;7.428;2022-08-25T15:46:18;29.90;83.00
13186;DHT22;6658;53.080;7.428;2022-08-25T15:48:45;30.00;82.10
13186;DHT22;6658;53.080;7.428;2022-08-25T15:51:11;30.10;82.40
13186;DHT22;6658;53.080;7.428;2022-08-25T15:53:37;30.20;82.20
13186;DHT22;6658;53.080;7.428;2022-08-25T15:56:05;30.20;83.40
13186;DHT22;6658;53.080;7.428;2022-08-25T15:58:32;30.20;84.30
13186;DHT22;6658;53.080;7.428;2022-08-25T16:00:59;30.20;83.70
13186;DHT22;6658;53.080;7.428;2022-08-25T16:03:25;30.20;83.70
13186;DHT22;6658;53.080;7.428;2022-08-25T16:05:51;30.00;83.10
13186;DHT22;6658;53.080;7.428;2022-08-25T16:08:17;30.00;83.40
13186;DHT22;6658;53.080;7.428;2022-08-25T16:10:43;29.90;83.70
13186;DHT22;6658;53.080;7.428;2022-08-25T16:13:10;29.80;82.60
13186;DHT22;6658;53.080;7.428;2022-08-25T16:15:36;29.90;83.30
13186;DHT22;6658;53.080;7.428;2022-08-25T16:18:04;29.80;83.90
13186;DHT22;6658;53.080;7.428;2022-08-25T16:20:33;29.70;83.80
13186;DHT22;6658;53.080;7.428;2022-08-25T16:22:59;29.70;84.20
13186;DHT22;6658;53.080;7.428;2022-08-25T16:25:28;29.70;84.70
13186;DHT22;6658;53.080;7.428;2022-08-25T16:27:54;29.60;85.30
13186;DHT22;6658;53.080;7.428;2022-08-25T16:30:19;29.60;84.90
13186;DHT22;6658;53.080;7.428;2022-08-25T16:32:45;29.60;86.30
13186;DHT22;6658;53.080;7.428;2022-08-25T16:35:12;29.60;86.20
13186;DHT22;6658;53.080;7.428;2022-08-25T16:37:38;29.50;86.30
13186;DHT22;6658;53.080;7.428;2022-08-25T16:40:05;29.50;86.70
13186;DHT22;6658;53.080;7.428;2022-08-25T16:42:31;29.40;86.90
13186;DHT22;6658;53.080;7.428;2022-08-25T16:44:57;29.40;87.30
13186;DHT22;6658;53.080;7.428;2022-08-25T16:47:22;29.30;87.60
13186;DHT22;6658;53.080;7.428;2022-08-25T16:49:48;29.30;88.10
13186;DHT22;6658;53.080;7.428;2022-08-25T16:52:14;29.30;88.60
13186;DHT22;6658;53.080;7.428;2022-08-25T16:54:58;29.20;88.90
13186;DHT22;6658;53.080;7.428;2022-08-25T16:57:42;29.20;87.90
13186;DHT22;6658;53.080;7.428;2022-08-25T17:00:11;29.20;89.10
13186;DHT22;6658;53.080;7.428;2022-08-25T17:02:38;29.20;88.80
13186;DHT22;6658;53.080;7.428;2022-08-25T17:05:05;29.10;88.80
13186;DHT22;6658;53.080;7.428;2022-08-25T17:07:31;29.10;89.50
13186;DHT22;6658;53.080;7.428;2022-08-25T17:09:57;29.10;89.60
13186;DHT22;6658;53.080;7.428;2022-08-25T17:12:26;29.00;90.10
13186;DHT22;6658;53.080;7.428;2022-08-25T17:14:52;29.00;90.20
13186;DHT22;6658;53.080;7.428;2022-08-25T17:17:18;29.00;90.50
13186;DHT22;6658;53.080;7.428;2022-08-25T17:19:44;28.90;90.50
13186;DHT22;6658;53.080;7.428;2022-08-25T17:22:09;28.90;90.70
13186;DHT22;6658;53.080;7.428;2022-08-25T17:24:39;28.80;90.80
13186;DHT22;6658;53.080;7.428;2022-08-25T17:27:05;28.70;90.60
13186;DHT22;6658;53.080;7.428;2022-08-25T17:29:31;28.70;90.90
13186;DHT22;6658;53.080;7.428;2022-08-25T17:31:58;28.70;90.90
13186;DHT22;6658;53.080;7.428;2022-08-25T17:34:24;28.70;91.10
13186;DHT22;6658;53.080;7.428;2022-08-25T17:36:51;28.60;91.40
13186;DHT22;6658;53.080;7.428;2022-08-25T17:39:18;28.60;91.40
13186;DHT22;6658;53.080;7.428;2022-08-25T17:41:44;28.60;91.60
13186;DHT22;6658;53.080;7.428;2022-08-25T17:44:11;28.50;91.80
13186;DHT22;6658;53.080;7.428;2022-08-25T17:46:37;28.50;92.20
13186;DHT22;6658;53.080;7.428;2022-08-25T17:51:49;28.40;92.50
13186;DHT22;6658;53.080;7.428;2022-08-25T17:54:16;28.40;92.80
13186;DHT22;6658;53.080;7.428;2022-08-25T17:56:41;28.30;92.80